Susan Ann — WCY5700 — position and weather

sailwx.info

Track history (hours):
 
Tides and Currents Weather Stations Pressure Air Temp Water Temp Dewpoint Dewpoint Depression Visibility Wind Speed Wind Dir Waves Ship Positions

Susan Ann

Owner: CROSS SOUND FERRY SERVICES INC, NEW LONDON, CT. More information available from US FCC via Universal Licensing System and Coast Guard Vessel Documentation Center.

Last reported at 2017-Jun-26 17:53 UTC. Time now 2017-Jun-26 19:04 UTC.
Position N 41°15' W 072°07'.

Length 72 m; draft 4 m.

Type: Passenger vessel. MMSI: 367354350.

Date/timePositionNaut miles runAvg speedWind from/ knotsBaromVisibWave heightAir tempDewpointWater temp
2017-Jun-26 17:53N 41°15' W 072°07'7 4.7
2017-Jun-26 16:20N 41°09' W 072°13'411.8
2017-Jun-26 16:00N 41°13' W 072°12'2 1.0
2017-Jun-26 13:39N 41°14' W 072°08'212.6
2017-Jun-26 13:28N 41°12' W 072°11'1 0.6
2017-Jun-26 11:49N 41°13' W 072°11'5 0.5
2017-Jun-26 01:58N 41°17' W 072°06'712.6
2017-Jun-26 01:26N 41°12' W 072°12'2 1.7
2017-Jun-26 00:11N 41°10' W 072°13'211.8
2017-Jun-26 00:00N 41°12' W 072°12'8 4.3
2017-Jun-25 22:08N 41°18' W 072°05'213.0
2017-Jun-25 22:00N 41°16' W 072°06'2 0.5
2017-Jun-25 17:46N 41°15' W 072°08'414.2
2017-Jun-25 17:29N 41°12' W 072°11'2 1.4
2017-Jun-25 16:07N 41°11' W 072°14'314.2
2017-Jun-25 15:55N 41°14' W 072°11'2 0.4
2017-Jun-25 11:56N 41°12' W 072°12'9 0.9
2017-Jun-25 02:05N 41°19' W 072°05'212.7
2017-Jun-25 01:56N 41°17' W 072°06'611.7
2017-Jun-25 01:27N 41°13' W 072°11'4 9.3
2017-Jun-25 01:00N 41°09' W 072°14'0 0.0
2017-Jun-25 00:28N 41°09' W 072°14'2 3.3
2017-Jun-25 00:00N 41°11' W 072°13'6 0.3
2017-Jun-24 01:45N 41°15' W 072°08'411.9
2017-Jun-24 01:25N 41°12' W 072°12'2 1.5
2017-Jun-24 00:00N 41°11' W 072°13'9 0.4
2017-Jun-23 01:54N 41°17' W 072°06'513.1
2017-Jun-23 01:30N 41°13' W 072°10'5 3.3
2017-Jun-23 00:07N 41°09' W 072°13'211.5
2017-Jun-22 23:58N 41°11' W 072°13'714.8
2017-Jun-22 23:30N 41°16' W 072°07'3 0.5
2017-Jun-22 17:33N 41°14' W 072°10'4 3.3
2017-Jun-22 16:14N 41°11' W 072°14'410.9
2017-Jun-22 15:54N 41°13' W 072°10'2 0.6
2017-Jun-22 11:58N 41°12' W 072°13'7 0.6
2017-Jun-21 23:53N 41°17' W 072°06'512.1
2017-Jun-21 23:29N 41°13' W 072°11'4 2.8
2017-Jun-21 22:07N 41°10' W 072°13'110.1
2017-Jun-21 22:00N 41°11' W 072°13'7 1.1
2017-Jun-21 15:44N 41°15' W 072°06'7 4.6
2017-Jun-21 14:08N 41°10' W 072°14'1 0.1
2017-Jun-21 00:18N 41°09' W 072°14'310.5
2017-Jun-21 00:01N 41°12' W 072°13'3 0.5
2017-Jun-20 17:37N 41°14' W 072°09'0 0.1
2017-Jun-20 13:38N 41°14' W 072°10'3 0.2
2017-Jun-19 23:47N 41°15' W 072°07'413.7
2017-Jun-19 23:28N 41°12' W 072°11'3 0.1
2017-Jun-19 01:59N 41°11' W 072°13'8 3.7
2017-Jun-18 23:54N 41°16' W 072°06'9 5.2
2017-Jun-18 22:15N 41°09' W 072°13'311.1
2017-Jun-18 22:00N 41°12' W 072°13'1 0.1
2017-Jun-18 00:08N 41°11' W 072°14'111.9
2017-Jun-18 00:00N 41°12' W 072°13'5 0.2
2017-Jun-17 01:40N 41°15' W 072°08'214.4
2017-Jun-17 01:30N 41°13' W 072°10'4 2.7
2017-Jun-17 00:07N 41°11' W 072°13'211.5
2017-Jun-16 23:59N 41°12' W 072°12'2 0.5
2017-Jun-16 20:01N 41°13' W 072°11'  
Track history (hours):
 
Tides and Currents Weather Stations Pressure Air Temp Water Temp Dewpoint Dewpoint Depression Visibility Wind Speed Wind Dir Waves Ship Positions

Susan Ann

Owner: CROSS SOUND FERRY SERVICES INC, NEW LONDON, CT. More information available from US FCC via Universal Licensing System and Coast Guard Vessel Documentation Center.

Last reported at 2017-Jun-26 17:53 UTC. Time now 2017-Jun-26 19:04 UTC.
Position N 41°15' W 072°07'.

Length 72 m; draft 4 m.

Type: Passenger vessel. MMSI: 367354350.

Date/timePositionNaut miles runAvg speedWind from/ knotsBaromVisibWave heightAir tempDewpointWater temp
2017-Jun-26 17:53N 41°15' W 072°07'7 4.7
2017-Jun-26 16:20N 41°09' W 072°13'411.8
2017-Jun-26 16:00N 41°13' W 072°12'2 1.0
2017-Jun-26 13:39N 41°14' W 072°08'212.6
2017-Jun-26 13:28N 41°12' W 072°11'1 0.6
2017-Jun-26 11:49N 41°13' W 072°11'5 0.5
2017-Jun-26 01:58N 41°17' W 072°06'712.6
2017-Jun-26 01:26N 41°12' W 072°12'2 1.7
2017-Jun-26 00:11N 41°10' W 072°13'211.8
2017-Jun-26 00:00N 41°12' W 072°12'8 4.3
2017-Jun-25 22:08N 41°18' W 072°05'213.0
2017-Jun-25 22:00N 41°16' W 072°06'2 0.5
2017-Jun-25 17:46N 41°15' W 072°08'414.2
2017-Jun-25 17:29N 41°12' W 072°11'2 1.4
2017-Jun-25 16:07N 41°11' W 072°14'314.2
2017-Jun-25 15:55N 41°14' W 072°11'2 0.4
2017-Jun-25 11:56N 41°12' W 072°12'9 0.9
2017-Jun-25 02:05N 41°19' W 072°05'212.7
2017-Jun-25 01:56N 41°17' W 072°06'611.7
2017-Jun-25 01:27N 41°13' W 072°11'4 9.3
2017-Jun-25 01:00N 41°09' W 072°14'0 0.0
2017-Jun-25 00:28N 41°09' W 072°14'2 3.3
2017-Jun-25 00:00N 41°11' W 072°13'6 0.3
2017-Jun-24 01:45N 41°15' W 072°08'411.9
2017-Jun-24 01:25N 41°12' W 072°12'2 1.5
2017-Jun-24 00:00N 41°11' W 072°13'9 0.4
2017-Jun-23 01:54N 41°17' W 072°06'513.1
2017-Jun-23 01:30N 41°13' W 072°10'5 3.3
2017-Jun-23 00:07N 41°09' W 072°13'211.5
2017-Jun-22 23:58N 41°11' W 072°13'714.8
2017-Jun-22 23:30N 41°16' W 072°07'3 0.5
2017-Jun-22 17:33N 41°14' W 072°10'4 3.3
2017-Jun-22 16:14N 41°11' W 072°14'410.9
2017-Jun-22 15:54N 41°13' W 072°10'2 0.6
2017-Jun-22 11:58N 41°12' W 072°13'7 0.6
2017-Jun-21 23:53N 41°17' W 072°06'512.1
2017-Jun-21 23:29N 41°13' W 072°11'4 2.8
2017-Jun-21 22:07N 41°10' W 072°13'110.1
2017-Jun-21 22:00N 41°11' W 072°13'7 1.1
2017-Jun-21 15:44N 41°15' W 072°06'7 4.6
2017-Jun-21 14:08N 41°10' W 072°14'1 0.1
2017-Jun-21 00:18N 41°09' W 072°14'310.5
2017-Jun-21 00:01N 41°12' W 072°13'3 0.5
2017-Jun-20 17:37N 41°14' W 072°09'0 0.1
2017-Jun-20 13:38N 41°14' W 072°10'3 0.2
2017-Jun-19 23:47N 41°15' W 072°07'413.7
2017-Jun-19 23:28N 41°12' W 072°11'3 0.1
2017-Jun-19 01:59N 41°11' W 072°13'8 3.7
2017-Jun-18 23:54N 41°16' W 072°06'9 5.2
2017-Jun-18 22:15N 41°09' W 072°13'311.1
2017-Jun-18 22:00N 41°12' W 072°13'1 0.1
2017-Jun-18 00:08N 41°11' W 072°14'111.9
2017-Jun-18 00:00N 41°12' W 072°13'5 0.2
2017-Jun-17 01:40N 41°15' W 072°08'214.4
2017-Jun-17 01:30N 41°13' W 072°10'4 2.7
2017-Jun-17 00:07N 41°11' W 072°13'211.5
2017-Jun-16 23:59N 41°12' W 072°12'2 0.5
2017-Jun-16 20:01N 41°13' W 072°11'  

Dump ship's entire track history